createdAt,value
2023-03-22T00:00:33.865Z,98449.44
2023-03-22T00:01:36.741Z,98441.66
2023-03-22T00:02:38.725Z,98438.41
2023-03-22T00:03:40.933Z,98446.78
2023-03-22T00:04:43.275Z,98445.97
2023-03-22T00:05:45.648Z,98444.09
2023-03-22T00:06:47.504Z,98445.19
2023-03-22T00:07:54.233Z,98448.97
2023-03-22T00:08:56.029Z,98450.06
2023-03-22T00:09:57.855Z,98441.97
2023-03-22T00:10:59.692Z,98446.34
2023-03-22T00:12:01.761Z,98443.94
2023-03-22T00:13:06.428Z,98437.16
2023-03-22T00:14:08.228Z,98437.75
2023-03-22T00:15:11.206Z,98433.41
2023-03-22T00:16:17.406Z,98431.25
2023-03-22T00:17:19.278Z,98424.53
2023-03-22T00:18:21.190Z,98434.75
2023-03-22T00:19:23.221Z,98433.44
2023-03-22T00:20:33.603Z,98430.19
2023-03-22T00:21:35.761Z,98427.25
2023-03-22T00:22:38.885Z,98427.25
2023-03-22T00:23:41.097Z,98434.03
2023-03-22T00:24:42.962Z,98430.53
2023-03-22T00:25:46.788Z,98427.03
2023-03-22T00:26:48.731Z,98424.84
2023-03-22T00:27:50.702Z,98429.44
2023-03-22T00:28:52.516Z,98427.03
2023-03-22T00:29:54.374Z,98420.00
2023-03-22T00:31:01.851Z,98420.56
2023-03-22T00:32:04.354Z,98420.59
2023-03-22T00:33:06.504Z,98422.19
2023-03-22T00:34:08.536Z,98412.78
2023-03-22T00:35:11.851Z,98414.41
2023-03-22T00:36:13.693Z,98413.09
2023-03-22T00:37:18.156Z,98418.19
2023-03-22T00:38:27.218Z,98413.88
2023-03-22T00:39:34.582Z,98412.78
2023-03-22T00:40:36.424Z,98419.28
2023-03-22T00:41:38.367Z,98417.38
2023-03-22T00:42:41.801Z,98417.66
2023-03-22T00:43:44.120Z,98415.78
2023-03-22T00:44:45.903Z,98408.78
2023-03-22T00:45:47.735Z,98409.38
2023-03-22T00:46:49.630Z,98410.97
2023-03-22T00:47:51.511Z,98410.16
2023-03-22T00:48:53.395Z,98405.03
2023-03-22T00:49:55.576Z,98408.53
2023-03-22T00:50:57.836Z,98398.84
2023-03-22T00:51:59.628Z,98402.63
2023-03-22T00:53:01.902Z,98395.34
2023-03-22T00:54:03.852Z,98401.81
2023-03-22T00:55:06.400Z,98402.63
2023-03-22T00:56:09.213Z,98399.13
2023-03-22T00:57:12.896Z,98398.63
2023-03-22T00:58:14.672Z,98398.63
2023-03-22T00:59:16.878Z,98391.13
2023-03-22T01:00:19.092Z,98399.19
2023-03-22T01:01:20.898Z,98394.91
2023-03-22T01:02:29.491Z,98398.91
2023-03-22T01:03:31.307Z,98395.72
2023-03-22T01:04:35.530Z,98388.72
2023-03-22T01:05:37.768Z,98387.91
2023-03-22T01:06:39.584Z,98387.91
2023-03-22T01:07:44.882Z,98389.53
2023-03-22T01:08:51.626Z,98384.13
2023-03-22T01:09:53.562Z,98379.28
2023-03-22T01:10:55.523Z,98379.28
2023-03-22T01:11:58.285Z,98382.28
2023-03-22T01:13:00.425Z,98372.88
2023-03-22T01:14:02.274Z,98378.78
2023-03-22T01:15:06.472Z,98375.28
2023-03-22T01:16:09.959Z,98373.97
2023-03-22T01:17:12.133Z,98371.00
2023-03-22T01:18:13.933Z,98367.50
2023-03-22T01:19:16.002Z,98374.50
2023-03-22T01:20:18.042Z,98370.19
2023-03-22T01:21:19.844Z,98368.59
2023-03-22T01:22:21.724Z,98362.41
2023-03-22T01:23:23.573Z,98356.72
2023-03-22T01:24:25.640Z,98363.19
2023-03-22T01:25:27.630Z,98363.50
2023-03-22T01:26:29.476Z,98357.03
2023-03-22T01:27:31.373Z,98368.59
2023-03-22T01:28:33.208Z,98362.41
2023-03-22T01:29:36.171Z,98367.50
2023-03-22T01:30:41.099Z,98355.13
2023-03-22T01:31:44.115Z,98360.81
2023-03-22T01:32:46.011Z,98360.00
2023-03-22T01:33:47.826Z,98360.28
2023-03-22T01:34:49.715Z,98351.13
2023-03-22T01:35:51.702Z,98354.09
2023-03-22T01:36:54.508Z,98358.41
2023-03-22T01:37:56.379Z,98359.47
2023-03-22T01:38:58.201Z,98354.09
2023-03-22T01:40:00.531Z,98351.41
2023-03-22T01:41:02.475Z,98354.34
2023-03-22T01:42:05.550Z,98353.56
2023-03-22T01:43:15.600Z,98348.72
2023-03-22T01:44:22.167Z,98350.88
2023-03-22T01:45:40.470Z,98352.22
2023-03-22T01:46:45.519Z,98356.00
2023-03-22T01:48:03.367Z,98353.28
2023-03-22T01:49:12.224Z,98356.25
2023-03-22T01:50:17.112Z,98354.94
2023-03-22T01:51:25.276Z,98354.94
2023-03-22T01:52:27.849Z,98352.81
2023-03-22T01:53:34.374Z,98348.22
2023-03-22T01:54:45.298Z,98349.03
2023-03-22T01:55:47.632Z,98351.22
2023-03-22T01:56:51.061Z,98348.81
2023-03-22T01:57:55.314Z,98347.72
2023-03-22T01:58:57.673Z,98355.00
2023-03-22T02:00:00.700Z,98344.50
2023-03-22T02:01:04.916Z,98343.44
2023-03-22T02:02:07.753Z,98344.50
2023-03-22T02:03:13.077Z,98354.19
2023-03-22T02:04:20.129Z,98343.44
2023-03-22T02:05:22.567Z,98345.56
2023-03-22T02:06:26.766Z,98345.56
2023-03-22T02:07:28.859Z,98343.97
2023-03-22T02:08:33.322Z,98340.19
2023-03-22T02:09:42.558Z,98339.94
2023-03-22T02:10:44.578Z,98343.97
2023-03-22T02:12:36.737Z,98342.56
2023-03-22T02:14:14.843Z,98340.16
2023-03-22T02:15:55.788Z,98339.94
2023-03-22T02:17:21.879Z,98346.38
2023-03-22T02:18:51.417Z,98342.38
2023-03-22T02:20:21.192Z,98337.50
2023-03-22T02:22:04.302Z,98338.88
2023-03-22T02:23:49.169Z,98338.06
2023-03-22T02:25:20.474Z,98336.75
2023-03-22T02:27:23.016Z,98334.88
2023-03-22T02:28:42.783Z,98338.69
2023-03-22T02:30:19.567Z,98332.75
2023-03-22T02:32:22.592Z,98333.28
2023-03-22T02:33:48.886Z,98335.44
2023-03-22T02:35:26.411Z,98330.06
2023-03-22T02:36:58.546Z,98327.66
2023-03-22T02:38:48.039Z,98327.94
2023-03-22T02:40:00.757Z,98330.66
2023-03-22T02:41:32.698Z,98327.97
2023-03-22T02:42:46.470Z,98327.44
2023-03-22T02:44:07.424Z,98327.44
2023-03-22T02:45:35.411Z,98328.53
2023-03-22T02:47:13.601Z,98325.03
2023-03-22T02:48:24.731Z,98320.97
2023-03-22T02:49:53.342Z,98320.72
2023-03-22T02:50:56.646Z,98323.97
2023-03-22T02:52:24.518Z,98323.41
2023-03-22T02:53:37.464Z,98325.56
2023-03-22T02:54:57.562Z,98325.56
2023-03-22T02:56:12.171Z,98323.16
2023-03-22T02:57:25.124Z,98321.28
2023-03-22T02:58:39.608Z,98322.06
2023-03-22T02:59:43.769Z,98322.66
2023-03-22T03:00:51.327Z,98318.06
2023-03-22T03:01:58.902Z,98326.94
2023-03-22T03:03:12.612Z,98324.25
2023-03-22T03:04:26.108Z,98322.34
2023-03-22T03:05:33.395Z,98324.25
2023-03-22T03:06:41.138Z,98324.25
2023-03-22T03:07:50.671Z,98327.75
2023-03-22T03:08:57.860Z,98329.13
2023-03-22T03:10:00.470Z,98327.50
2023-03-22T03:11:02.411Z,98321.31
2023-03-22T03:12:21.152Z,98320.75
2023-03-22T03:13:23.005Z,98325.34
2023-03-22T03:14:31.068Z,98324.53
2023-03-22T03:15:33.235Z,98324.81
2023-03-22T03:16:36.670Z,98325.09
2023-03-22T03:18:09.063Z,98323.97
2023-03-22T03:19:37.811Z,98327.75
2023-03-22T03:21:06.724Z,98333.13
2023-03-22T03:22:36.921Z,98330.72
2023-03-22T03:23:49.594Z,98328.59
2023-03-22T03:25:26.114Z,98327.50
2023-03-22T03:27:10.678Z,98333.41
2023-03-22T03:28:38.441Z,98329.69
2023-03-22T03:29:47.319Z,98327.53
2023-03-22T03:31:28.188Z,98329.41
2023-03-22T03:32:37.965Z,98322.97
2023-03-22T03:33:51.316Z,98324.03
2023-03-22T03:35:01.569Z,98322.97
2023-03-22T03:36:11.279Z,98322.16
2023-03-22T03:37:23.940Z,98329.72
2023-03-22T03:38:33.585Z,98324.31
2023-03-22T03:40:05.152Z,98333.19
2023-03-22T03:41:13.913Z,98332.91
2023-03-22T03:42:18.527Z,98332.13
2023-03-22T03:43:22.868Z,98332.69
2023-03-22T03:44:25.024Z,98335.38
2023-03-22T03:45:26.925Z,98333.78
2023-03-22T03:46:29.738Z,98335.66
2023-03-22T03:47:34.217Z,98331.38
2023-03-22T03:48:39.618Z,98331.59
2023-03-22T03:49:42.071Z,98331.38
2023-03-22T03:50:44.334Z,98331.88
2023-03-22T03:51:53.314Z,98327.03
2023-03-22T03:52:56.109Z,98326.50
2023-03-22T03:53:58.004Z,98338.34
2023-03-22T03:54:59.846Z,98331.88
2023-03-22T03:56:01.625Z,98333.78
2023-03-22T03:57:04.228Z,98334.34
2023-03-22T03:58:06.095Z,98332.97
2023-03-22T03:59:09.075Z,98328.38
2023-03-22T04:00:14.446Z,98328.69
2023-03-22T04:01:19.537Z,98327.59
2023-03-22T04:02:21.395Z,98326.78
2023-03-22T04:03:23.278Z,98325.19
2023-03-22T04:04:29.720Z,98323.00
2023-03-22T04:05:31.943Z,98327.88
2023-03-22T04:06:34.639Z,98322.50
2023-03-22T04:07:36.701Z,98320.91
2023-03-22T04:08:38.625Z,98319.00
2023-03-22T04:09:41.224Z,98320.59
2023-03-22T04:10:43.872Z,98323.88
2023-03-22T04:11:45.969Z,98324.38
2023-03-22T04:12:47.750Z,98321.19
2023-03-22T04:13:49.606Z,98320.09
2023-03-22T04:14:51.464Z,98316.31
2023-03-22T04:15:58.010Z,98316.84
2023-03-22T04:16:59.963Z,98326.00
2023-03-22T04:18:01.940Z,98320.59
2023-03-22T04:19:03.700Z,98321.69
2023-03-22T04:20:09.600Z,98321.41
2023-03-22T04:21:12.142Z,98320.09
2023-03-22T04:22:18.476Z,98323.59
2023-03-22T04:23:22.610Z,98314.44
2023-03-22T04:24:24.493Z,98309.03
2023-03-22T04:25:30.242Z,98314.72
2023-03-22T04:26:33.420Z,98303.66
2023-03-22T04:27:35.250Z,98309.34
2023-03-22T04:28:37.066Z,98303.16
2023-03-22T04:29:38.965Z,98299.66
2023-03-22T04:30:40.993Z,98292.09
2023-03-22T04:31:42.945Z,98296.13
2023-03-22T04:32:51.193Z,98302.88
2023-03-22T04:33:54.922Z,98302.06
2023-03-22T04:34:56.814Z,98308.25
2023-03-22T04:35:59.398Z,98310.41
2023-03-22T04:37:02.608Z,98305.56
2023-03-22T04:38:04.481Z,98300.72
2023-03-22T04:39:11.449Z,98300.19
2023-03-22T04:40:16.802Z,98302.06
2023-03-22T04:41:18.898Z,98311.72
2023-03-22T04:42:20.862Z,98302.06
2023-03-22T04:43:22.951Z,98299.66
2023-03-22T04:44:24.840Z,98302.34
2023-03-22T04:45:29.143Z,98293.44
2023-03-22T04:46:33.986Z,98288.91
2023-03-22T04:47:35.856Z,98295.34
2023-03-22T04:48:39.367Z,98293.19
2023-03-22T04:49:41.808Z,98294.53
2023-03-22T04:50:43.670Z,98292.66
2023-03-22T04:51:45.785Z,98291.34
2023-03-22T04:52:48.004Z,98284.06
2023-03-22T04:53:49.806Z,98285.94
2023-03-22T04:54:51.781Z,98288.63
2023-03-22T04:55:58.237Z,98286.75
2023-03-22T04:57:00.989Z,98287.56
2023-03-22T04:58:03.106Z,98279.78
2023-03-22T04:59:05.110Z,98283.25
2023-03-22T05:00:10.936Z,98277.09
2023-03-22T05:01:16.137Z,98276.00
2023-03-22T05:02:18.021Z,98272.78
2023-03-22T05:03:21.631Z,98279.25
2023-03-22T05:04:23.542Z,98276.84
2023-03-22T05:05:25.466Z,98277.13
2023-03-22T05:06:27.400Z,98276.06
2023-03-22T05:07:29.277Z,98277.13
2023-03-22T05:08:31.523Z,98278.75
2023-03-22T05:09:33.460Z,98270.66
2023-03-22T05:10:39.762Z,98270.38
2023-03-22T05:11:42.462Z,98271.75
2023-03-22T05:12:44.337Z,98276.06
2023-03-22T05:13:46.673Z,98269.06
2023-03-22T05:14:48.540Z,98265.59
2023-03-22T05:15:51.681Z,98274.44
2023-03-22T05:16:53.566Z,98266.09
2023-03-22T05:17:55.767Z,98271.47
2023-03-22T05:18:57.670Z,98269.88
2023-03-22T05:20:00.705Z,98267.97
2023-03-22T05:21:03.896Z,98267.97
2023-03-22T05:22:05.768Z,98271.75
2023-03-22T05:23:09.792Z,98267.97
2023-03-22T05:24:12.183Z,98270.38
2023-03-22T05:25:13.996Z,98266.91
2023-03-22T05:26:16.613Z,98268.78
2023-03-22T05:27:30.177Z,98270.38
2023-03-22T05:28:31.965Z,98269.81
2023-03-22T05:29:36.864Z,98272.50
2023-03-22T05:30:39.046Z,98265.53
2023-03-22T05:31:41.195Z,98271.19
2023-03-22T05:32:43.975Z,98262.03
2023-03-22T05:33:46.608Z,98272.50
2023-03-22T05:34:48.436Z,98269.00
2023-03-22T05:35:51.132Z,98277.09
2023-03-22T05:36:53.013Z,98276.50
2023-03-22T05:37:54.907Z,98283.78
2023-03-22T05:38:57.811Z,98283.53
2023-03-22T05:39:59.640Z,98285.13
2023-03-22T05:41:01.496Z,98282.69
2023-03-22T05:42:03.642Z,98287.81
2023-03-22T05:43:05.725Z,98284.03
2023-03-22T05:44:08.143Z,98291.31
2023-03-22T05:45:11.804Z,98285.94
2023-03-22T05:46:13.738Z,98293.72
2023-03-22T05:47:16.014Z,98292.09
2023-03-22T05:48:17.827Z,98286.72
2023-03-22T05:49:19.777Z,98288.34
2023-03-22T05:50:24.288Z,98289.94
2023-03-22T05:51:27.405Z,98293.72
2023-03-22T05:52:29.246Z,98294.22
2023-03-22T05:53:31.855Z,98295.31
2023-03-22T05:54:33.665Z,98296.13
2023-03-22T05:55:35.466Z,98295.31
2023-03-22T05:56:37.325Z,98297.72
2023-03-22T05:57:40.808Z,98293.94
2023-03-22T05:58:42.869Z,98294.22
2023-03-22T05:59:44.690Z,98295.81
2023-03-22T06:00:49.947Z,98288.28
2023-03-22T06:01:51.893Z,98291.25
2023-03-22T06:02:56.294Z,98293.13
2023-03-22T06:03:58.179Z,98294.75
2023-03-22T06:04:59.935Z,98297.44
2023-03-22T06:06:02.006Z,98295.03
2023-03-22T06:07:03.829Z,98301.72
2023-03-22T06:08:05.642Z,98298.50
2023-03-22T06:09:16.801Z,98307.09
2023-03-22T06:10:19.391Z,98307.09
2023-03-22T06:11:22.584Z,98307.09
2023-03-22T06:12:27.215Z,98312.47
2023-03-22T06:13:30.520Z,98308.69
2023-03-22T06:14:32.378Z,98309.78
2023-03-22T06:15:34.205Z,98304.41
2023-03-22T06:16:36.169Z,98307.09
2023-03-22T06:17:38.532Z,98313.28
2023-03-22T06:18:40.351Z,98302.53
2023-03-22T06:19:42.264Z,98304.13
2023-03-22T06:20:44.256Z,98308.69
2023-03-22T06:21:46.080Z,98307.09
2023-03-22T06:22:47.921Z,98311.09
2023-03-22T06:23:49.884Z,98307.63
2023-03-22T06:24:51.752Z,98298.50
2023-03-22T06:25:53.641Z,98317.56
2023-03-22T06:26:55.510Z,98313.00
2023-03-22T06:27:57.446Z,98316.78
2023-03-22T06:28:59.374Z,98315.69
2023-03-22T06:30:01.251Z,98320.00
2023-03-22T06:31:10.459Z,98310.84
2023-03-22T06:32:12.329Z,98311.94
2023-03-22T06:33:14.139Z,98314.63
2023-03-22T06:34:15.947Z,98313.81
2023-03-22T06:35:17.864Z,98312.75
2023-03-22T06:36:19.659Z,98314.63
2023-03-22T06:37:22.889Z,98315.44
2023-03-22T06:38:24.777Z,98311.66
2023-03-22T06:39:26.985Z,98313.81
2023-03-22T06:40:29.068Z,98317.03
2023-03-22T06:41:31.222Z,98314.34
2023-03-22T06:42:33.790Z,98315.94
2023-03-22T06:43:35.896Z,98315.44
2023-03-22T06:44:37.773Z,98311.38
2023-03-22T06:45:39.718Z,98317.84
2023-03-22T06:46:41.896Z,98318.63
2023-03-22T06:47:44.555Z,98315.66
2023-03-22T06:48:46.576Z,98322.13
2023-03-22T06:49:48.519Z,98317.84
2023-03-22T06:50:50.534Z,98322.66
2023-03-22T06:51:52.643Z,98323.72
2023-03-22T06:52:54.920Z,98325.34
2023-03-22T06:53:57.819Z,98324.53
2023-03-22T06:54:59.657Z,98324.53
2023-03-22T06:56:01.469Z,98326.13
2023-03-22T06:57:03.559Z,98326.94
2023-03-22T06:58:05.791Z,98327.44
2023-03-22T06:59:07.802Z,98318.59
2023-03-22T07:00:10.713Z,98319.66
2023-03-22T07:01:12.630Z,98327.44
2023-03-22T07:02:14.574Z,98317.50
2023-03-22T07:03:16.598Z,98324.47
2023-03-22T07:04:19.988Z,98324.47
2023-03-22T07:05:22.029Z,98323.41
2023-03-22T07:06:23.939Z,98325.56
2023-03-22T07:07:25.809Z,98321.78
2023-03-22T07:08:27.579Z,98323.41
2023-03-22T07:09:29.459Z,98324.47
2023-03-22T07:10:31.286Z,98318.84
2023-03-22T07:11:33.124Z,98321.53
2023-03-22T07:12:35.737Z,98312.38
2023-03-22T07:13:37.668Z,98321.53
2023-03-22T07:14:39.627Z,98315.06
2023-03-22T07:15:41.709Z,98321.25
2023-03-22T07:16:43.640Z,98319.88
2023-03-22T07:17:45.503Z,98317.19
2023-03-22T07:18:48.220Z,98315.28
2023-03-22T07:19:50.077Z,98324.16
2023-03-22T07:20:52.462Z,98324.97
2023-03-22T07:21:54.253Z,98324.16
2023-03-22T07:22:56.290Z,98324.97
2023-03-22T07:23:58.218Z,98326.66
2023-03-22T07:25:01.857Z,98323.38
2023-03-22T07:26:04.051Z,98325.47
2023-03-22T07:27:06.089Z,98321.69
2023-03-22T07:28:07.980Z,98324.16
2023-03-22T07:29:10.034Z,98319.28
2023-03-22T07:30:12.800Z,98324.09
2023-03-22T07:31:16.406Z,98323.00
2023-03-22T07:32:18.204Z,98326.78
2023-03-22T07:33:20.225Z,98330.00
2023-03-22T07:34:22.246Z,98331.59
2023-03-22T07:35:26.647Z,98324.31
2023-03-22T07:36:29.246Z,98329.44
2023-03-22T07:37:31.230Z,98329.44
2023-03-22T07:38:33.171Z,98332.91
2023-03-22T07:39:35.375Z,98330.78
2023-03-22T07:40:37.403Z,98330.78
2023-03-22T07:41:40.191Z,98336.94
2023-03-22T07:42:42.062Z,98332.09
2023-03-22T07:43:55.257Z,98327.50
2023-03-22T07:44:58.604Z,98329.41
2023-03-22T07:46:00.738Z,98332.88
2023-03-22T07:47:02.683Z,98331.00
2023-03-22T07:48:04.857Z,98326.94
2023-03-22T07:49:06.712Z,98329.31
2023-03-22T07:50:12.336Z,98330.94
2023-03-22T07:51:14.210Z,98332.81
2023-03-22T07:52:16.015Z,98334.72
2023-03-22T07:53:17.876Z,98335.50
2023-03-22T07:54:32.475Z,98337.66
2023-03-22T07:55:34.763Z,98331.19
2023-03-22T07:56:36.720Z,98332.78
2023-03-22T07:57:38.830Z,98326.59
2023-03-22T07:58:41.028Z,98327.13
2023-03-22T07:59:44.186Z,98334.09
2023-03-22T08:00:46.017Z,98331.41
2023-03-22T08:01:47.890Z,98330.31
2023-03-22T08:02:49.803Z,98334.31
2023-03-22T08:03:51.661Z,98333.25
2023-03-22T08:04:56.460Z,98332.47
2023-03-22T08:06:07.313Z,98328.38
2023-03-22T08:07:10.097Z,98331.59
2023-03-22T08:08:13.468Z,98328.09
2023-03-22T08:09:15.594Z,98339.38
2023-03-22T08:10:17.807Z,98336.09
2023-03-22T08:11:19.663Z,98330.22
2023-03-22T08:12:21.460Z,98330.72
2023-03-22T08:13:23.598Z,98330.44
2023-03-22T08:14:35.872Z,98332.56
2023-03-22T08:15:39.037Z,98334.19
2023-03-22T08:16:43.276Z,98332.28
2023-03-22T08:17:45.310Z,98329.59
2023-03-22T08:18:47.282Z,98322.31
2023-03-22T08:19:49.931Z,98328.22
2023-03-22T08:20:58.082Z,98330.31
2023-03-22T08:21:59.878Z,98326.03
2023-03-22T08:23:01.912Z,98330.31
2023-03-22T08:24:05.278Z,98322.00
2023-03-22T08:25:07.496Z,98331.66
2023-03-22T08:26:11.148Z,98335.97
2023-03-22T08:27:14.151Z,98334.59
2023-03-22T08:28:16.647Z,98333.78
2023-03-22T08:29:19.803Z,98330.00
2023-03-22T08:30:22.327Z,98323.50
2023-03-22T08:31:24.235Z,98333.75
2023-03-22T08:32:26.275Z,98331.84
2023-03-22T08:33:28.688Z,98335.38
2023-03-22T08:34:31.348Z,98326.47
2023-03-22T08:35:34.845Z,98324.00
2023-03-22T08:36:38.161Z,98325.63
2023-03-22T08:37:40.263Z,98324.53
2023-03-22T08:38:45.382Z,98319.44
2023-03-22T08:39:47.908Z,98323.13
2023-03-22T08:40:49.790Z,98323.44
2023-03-22T08:41:51.662Z,98323.94
2023-03-22T08:42:54.073Z,98319.63
2023-03-22T08:43:56.137Z,98330.94
2023-03-22T08:44:57.904Z,98324.44
2023-03-22T08:45:59.841Z,98324.19
2023-03-22T08:47:03.119Z,98324.22
2023-03-22T08:48:05.288Z,98327.00
2023-03-22T08:49:07.216Z,98332.81
2023-03-22T08:50:11.254Z,98326.59
2023-03-22T08:51:13.031Z,98328.00
2023-03-22T08:52:14.887Z,98320.09
2023-03-22T08:53:16.689Z,98324.91
2023-03-22T08:54:18.976Z,98323.53
2023-03-22T08:55:20.850Z,98324.56
2023-03-22T08:56:24.788Z,98326.47
2023-03-22T08:57:27.656Z,98318.88
2023-03-22T08:58:29.853Z,98324.78
2023-03-22T08:59:31.645Z,98323.97
2023-03-22T09:00:45.981Z,98312.91
2023-03-22T09:01:50.448Z,98313.41
2023-03-22T09:02:52.261Z,98314.22
2023-03-22T09:03:54.143Z,98315.00
2023-03-22T09:04:56.190Z,98316.91
2023-03-22T09:05:58.028Z,98311.75
2023-03-22T09:06:59.845Z,98309.88
2023-03-22T09:08:06.807Z,98308.78
2023-03-22T09:09:08.698Z,98307.38
2023-03-22T09:10:11.855Z,98304.69
2023-03-22T09:11:14.624Z,98311.69
2023-03-22T09:12:17.295Z,98305.19
2023-03-22T09:13:20.568Z,98309.50
2023-03-22T09:14:22.412Z,98297.91
2023-03-22T09:15:24.334Z,98305.69
2023-03-22T09:16:26.189Z,98306.22
2023-03-22T09:17:28.080Z,98310.81
2023-03-22T09:18:30.095Z,98307.84
2023-03-22T09:19:32.182Z,98312.44
2023-03-22T09:20:34.647Z,98309.72
2023-03-22T09:21:36.423Z,98306.75
2023-03-22T09:22:38.386Z,98305.66
2023-03-22T09:23:40.530Z,98304.56
2023-03-22T09:24:42.512Z,98308.84
2023-03-22T09:25:46.438Z,98305.84
2023-03-22T09:26:48.366Z,98314.75
2023-03-22T09:27:50.354Z,98300.16
2023-03-22T09:28:52.422Z,98295.56
2023-03-22T09:29:54.202Z,98300.69
2023-03-22T09:31:05.307Z,98307.41
2023-03-22T09:32:07.184Z,98303.09
2023-03-22T09:33:09.457Z,98302.00
2023-03-22T09:34:11.225Z,98297.16
2023-03-22T09:35:13.072Z,98299.84
2023-03-22T09:36:16.596Z,98293.34
2023-03-22T09:37:20.328Z,98291.47
2023-03-22T09:38:22.438Z,98295.25
2023-03-22T09:39:24.611Z,98291.97
2023-03-22T09:40:34.881Z,98290.88
2023-03-22T09:41:54.409Z,98296.19
2023-03-22T09:43:02.198Z,98295.69
2023-03-22T09:44:12.338Z,98291.59
2023-03-22T09:45:22.952Z,98292.41
2023-03-22T09:46:31.692Z,98288.91
2023-03-22T09:48:15.548Z,98289.06
2023-03-22T09:49:26.412Z,98286.91
2023-03-22T09:50:33.383Z,98289.63
2023-03-22T09:51:42.115Z,98281.25
2023-03-22T09:52:44.965Z,98281.53
2023-03-22T09:53:46.801Z,98281.53
2023-03-22T09:54:50.421Z,98282.63
2023-03-22T09:56:23.117Z,98281.97
2023-03-22T09:57:37.386Z,98287.34
2023-03-22T09:59:11.276Z,98285.16
2023-03-22T10:00:37.561Z,98279.47
2023-03-22T10:01:57.157Z,98276.50
2023-03-22T10:03:24.565Z,98277.50
2023-03-22T10:04:47.250Z,98280.00
2023-03-22T10:06:07.345Z,98275.09
2023-03-22T10:08:21.334Z,98271.22
2023-03-22T10:09:46.861Z,98273.22
2023-03-22T10:10:51.911Z,98273.00
2023-03-22T10:12:20.215Z,98274.00
2023-03-22T10:13:53.469Z,98263.50
2023-03-22T10:15:11.617Z,98267.00
2023-03-22T10:16:27.866Z,98260.81
2023-03-22T10:17:30.646Z,98258.69
2023-03-22T10:18:47.098Z,98261.91
2023-03-22T10:20:00.743Z,98261.63
2023-03-22T10:21:06.979Z,98258.63
2023-03-22T10:22:16.411Z,98254.81
2023-03-22T10:23:30.561Z,98253.72
2023-03-22T10:24:38.177Z,98258.03
2023-03-22T10:25:43.083Z,98249.94
2023-03-22T10:26:49.328Z,98256.94
2023-03-22T10:27:52.566Z,98254.75
2023-03-22T10:29:04.021Z,98254.47
2023-03-22T10:30:30.573Z,98248.47
2023-03-22T10:31:34.505Z,98250.66
2023-03-22T10:33:04.030Z,98242.47
2023-03-22T10:34:17.049Z,98248.66
2023-03-22T10:35:19.166Z,98241.47
2023-03-22T10:36:27.442Z,98243.25
2023-03-22T10:37:37.587Z,98241.06
2023-03-22T10:38:49.606Z,98231.91
2023-03-22T10:39:55.844Z,98238.09
2023-03-22T10:41:00.182Z,98237.00
2023-03-22T10:42:15.486Z,98239.88
2023-03-22T10:43:37.985Z,98243.09
2023-03-22T10:44:56.191Z,98231.19
2023-03-22T10:46:01.263Z,98234.50
2023-03-22T10:47:08.112Z,98228.28
2023-03-22T10:48:19.874Z,98231.19
2023-03-22T10:49:35.868Z,98237.91
2023-03-22T10:50:43.205Z,98231.69
2023-03-22T10:51:54.429Z,98232.53
2023-03-22T10:53:29.886Z,98227.34
2023-03-22T10:54:32.773Z,98230.66
2023-03-22T10:55:41.821Z,98223.34
2023-03-22T10:56:45.059Z,98231.69
2023-03-22T10:58:08.632Z,98229.56
2023-03-22T10:59:52.646Z,98228.34
2023-03-22T11:00:59.777Z,98224.66
2023-03-22T11:02:02.075Z,98228.44
2023-03-22T11:03:07.122Z,98230.03
2023-03-22T11:04:14.201Z,98223.06
2023-03-22T11:05:27.259Z,98220.03
2023-03-22T11:06:36.964Z,98226.25
2023-03-22T11:07:44.363Z,98216.56
2023-03-22T11:08:58.937Z,98220.84
2023-03-22T11:10:34.786Z,98212.63
2023-03-22T11:11:55.983Z,98219.13
2023-03-22T11:13:17.142Z,98209.16
2023-03-22T11:14:30.680Z,98206.75
2023-03-22T11:15:35.996Z,98209.44
2023-03-22T11:16:53.724Z,98205.94
2023-03-22T11:18:04.602Z,98200.56
2023-03-22T11:19:06.949Z,98201.94
2023-03-22T11:20:17.662Z,98200.84
2023-03-22T11:21:27.987Z,98205.94
2023-03-22T11:22:40.974Z,98205.16
2023-03-22T11:23:55.874Z,98207.53
2023-03-22T11:25:00.093Z,98205.16
2023-03-22T11:26:14.398Z,98196.75
2023-03-22T11:27:25.364Z,98200.25
2023-03-22T11:28:37.034Z,98201.34
2023-03-22T11:29:57.313Z,98204.84
2023-03-22T11:31:12.299Z,98203.25
2023-03-22T11:32:37.610Z,98200.06
2023-03-22T11:33:59.266Z,98195.56
2023-03-22T11:35:18.639Z,98194.22
2023-03-22T11:36:20.558Z,98193.28
2023-03-22T11:37:22.405Z,98188.81
2023-03-22T11:38:42.012Z,98182.81
2023-03-22T11:39:49.365Z,98175.00
2023-03-22T11:41:00.357Z,98179.41
2023-03-22T11:42:06.448Z,98185.09
2023-03-22T11:43:19.351Z,98179.72
2023-03-22T11:44:23.074Z,98178.13
2023-03-22T11:45:41.056Z,98180.22
2023-03-22T11:47:00.609Z,98182.31
2023-03-22T11:48:14.740Z,98173.41
2023-03-22T11:49:18.582Z,98183.09
2023-03-22T11:50:32.446Z,98172.81
2023-03-22T11:51:39.038Z,98180.31
2023-03-22T11:52:48.482Z,98183.53
2023-03-22T11:53:50.328Z,98181.13
2023-03-22T11:54:54.554Z,98181.63
2023-03-22T11:55:57.808Z,98181.63
2023-03-22T11:57:04.719Z,98168.81
2023-03-22T11:58:07.061Z,98175.84
2023-03-22T11:59:38.442Z,98175.94
2023-03-22T12:00:42.804Z,98163.38
2023-03-22T12:02:10.752Z,98166.25
2023-03-22T12:03:19.936Z,98160.28
2023-03-22T12:04:29.779Z,98161.56
2023-03-22T12:05:40.320Z,98155.88
2023-03-22T12:06:43.438Z,98155.88
2023-03-22T12:07:51.133Z,98160.16
2023-03-22T12:09:00.766Z,98150.34
2023-03-22T12:10:22.867Z,98148.69
2023-03-22T12:11:43.678Z,98151.06
2023-03-22T12:13:31.258Z,98147.94
2023-03-22T12:14:57.335Z,98153.66
2023-03-22T12:16:06.076Z,98155.56
2023-03-22T12:17:36.610Z,98144.97
2023-03-22T12:19:09.190Z,98146.88
2023-03-22T12:20:40.682Z,98142.75
2023-03-22T12:21:46.224Z,98144.66
2023-03-22T12:22:54.199Z,98145.47
2023-03-22T12:24:01.246Z,98147.06
2023-03-22T12:25:04.912Z,98145.47
2023-03-22T12:26:17.383Z,98146.34
2023-03-22T12:27:36.380Z,98137.53
2023-03-22T12:28:56.340Z,98140.44
2023-03-22T12:30:51.485Z,98148.13
2023-03-22T12:32:27.253Z,98140.53
2023-03-22T12:33:43.338Z,98142.25
2023-03-22T12:34:55.133Z,98134.94
2023-03-22T12:36:06.968Z,98136.53
2023-03-22T12:37:19.409Z,98132.22
2023-03-22T12:38:41.099Z,98135.44
2023-03-22T12:39:53.753Z,98128.44
2023-03-22T12:41:02.798Z,98127.63
2023-03-22T12:42:24.138Z,98123.50
2023-03-22T12:44:01.693Z,98124.00
2023-03-22T12:45:13.879Z,98120.03
2023-03-22T12:46:47.570Z,98120.50
2023-03-22T12:48:10.362Z,98122.41
2023-03-22T12:49:36.609Z,98120.81
2023-03-22T12:50:57.974Z,98123.50
2023-03-22T12:52:19.574Z,98116.22
2023-03-22T12:53:28.157Z,98104.91
2023-03-22T12:54:30.594Z,98116.81
2023-03-22T12:55:40.389Z,98117.31
2023-03-22T12:56:46.406Z,98106.50
2023-03-22T12:57:52.278Z,98121.91
2023-03-22T12:59:03.573Z,98106.19
2023-03-22T13:00:16.070Z,98113.72
2023-03-22T13:01:29.112Z,98115.31
2023-03-22T13:02:35.710Z,98115.31
2023-03-22T13:03:46.894Z,98105.31
2023-03-22T13:04:58.696Z,98101.50
2023-03-22T13:06:27.377Z,98105.00
2023-03-22T13:07:37.379Z,98097.09
2023-03-22T13:09:21.412Z,98101.09
2023-03-22T13:10:36.753Z,98092.50
2023-03-22T13:11:38.886Z,98093.88
2023-03-22T13:12:40.700Z,98096.09
2023-03-22T13:13:46.902Z,98094.72
2023-03-22T13:14:56.782Z,98097.91